createdAt,value
2023-05-10T00:00:19.175Z,538.00
2023-05-10T00:01:18.861Z,539.00
2023-05-10T00:02:18.968Z,539.00
2023-05-10T00:03:19.012Z,538.00
2023-05-10T00:04:19.115Z,536.00
2023-05-10T00:05:19.060Z,540.00
2023-05-10T00:06:19.152Z,541.00
2023-05-10T00:07:19.192Z,544.00
2023-05-10T00:08:19.265Z,545.00
2023-05-10T00:09:20.170Z,545.00
2023-05-10T00:10:19.382Z,546.00
2023-05-10T00:11:21.588Z,547.00
2023-05-10T00:12:19.467Z,545.00
2023-05-10T00:13:19.504Z,541.00
2023-05-10T00:14:19.440Z,541.00
2023-05-10T00:15:19.444Z,539.00
2023-05-10T00:16:19.456Z,540.00
2023-05-10T00:17:19.411Z,543.00
2023-05-10T00:18:19.416Z,543.00
2023-05-10T00:19:19.526Z,542.00
2023-05-10T00:20:19.582Z,542.00
2023-05-10T00:21:19.389Z,544.00
2023-05-10T00:22:19.390Z,544.00
2023-05-10T00:23:19.376Z,543.00
2023-05-10T00:24:19.374Z,548.00
2023-05-10T00:25:19.355Z,548.00
2023-05-10T00:26:19.356Z,546.00
2023-05-10T00:27:19.359Z,544.00
2023-05-10T00:28:19.345Z,543.00
2023-05-10T00:29:19.361Z,547.00
2023-05-10T00:30:19.444Z,547.00
2023-05-10T00:31:19.342Z,545.00
2023-05-10T00:32:19.372Z,546.00
2023-05-10T00:33:19.380Z,548.00
2023-05-10T00:34:19.310Z,548.00
2023-05-10T00:35:19.321Z,545.00
2023-05-10T00:36:19.294Z,545.00
2023-05-10T00:37:19.291Z,544.00
2023-05-10T00:38:19.282Z,545.00
2023-05-10T00:39:19.284Z,546.00
2023-05-10T00:40:19.459Z,544.00
2023-05-10T00:41:19.263Z,543.00
2023-05-10T00:42:19.251Z,542.00
2023-05-10T00:43:19.285Z,540.00
2023-05-10T00:44:19.249Z,541.00
2023-05-10T00:45:19.272Z,539.00
2023-05-10T00:46:19.292Z,537.00
2023-05-10T00:47:19.258Z,538.00
2023-05-10T00:48:19.237Z,539.00
2023-05-10T00:49:19.225Z,540.00
2023-05-10T00:50:19.234Z,539.00
2023-05-10T00:51:19.232Z,542.00
2023-05-10T00:52:19.232Z,543.00
2023-05-10T00:53:19.228Z,543.00
2023-05-10T00:54:19.227Z,541.00
2023-05-10T00:55:19.241Z,539.00
2023-05-10T00:56:19.295Z,541.00
2023-05-10T00:57:19.327Z,541.00
2023-05-10T00:58:19.390Z,540.00
2023-05-10T00:59:19.375Z,541.00
2023-05-10T01:00:19.393Z,543.00
2023-05-10T01:01:19.580Z,540.00
2023-05-10T01:02:19.468Z,541.00
2023-05-10T01:03:19.588Z,540.00
2023-05-10T01:04:19.396Z,542.00
2023-05-10T01:05:19.445Z,542.00
2023-05-10T01:06:19.410Z,542.00
2023-05-10T01:07:19.406Z,541.00
2023-05-10T01:08:19.455Z,539.00
2023-05-10T01:09:19.447Z,536.00
2023-05-10T01:10:19.440Z,534.00
2023-05-10T01:11:19.423Z,531.00
2023-05-10T01:12:19.474Z,534.00
2023-05-10T01:13:19.527Z,537.00
2023-05-10T01:14:19.554Z,535.00
2023-05-10T01:15:19.580Z,533.00
2023-05-10T01:16:19.649Z,535.00
2023-05-10T01:17:19.662Z,535.00
2023-05-10T01:18:19.640Z,533.00
2023-05-10T01:19:19.646Z,533.00
2023-05-10T01:20:19.799Z,537.00
2023-05-10T01:21:19.655Z,536.00
2023-05-10T01:22:19.632Z,535.00
2023-05-10T01:23:19.664Z,532.00
2023-05-10T01:24:19.632Z,533.00
2023-05-10T01:25:19.626Z,536.00
2023-05-10T01:26:19.635Z,534.00
2023-05-10T01:27:19.636Z,536.00
2023-05-10T01:28:19.616Z,537.00
2023-05-10T01:29:19.616Z,536.00
2023-05-10T01:30:22.235Z,535.00
2023-05-10T01:31:19.663Z,534.00
2023-05-10T01:32:19.606Z,538.00
2023-05-10T01:33:19.630Z,537.00
2023-05-10T01:34:19.586Z,537.00
2023-05-10T01:35:19.583Z,538.00
2023-05-10T01:36:19.615Z,537.00
2023-05-10T01:37:19.570Z,537.00
2023-05-10T01:38:19.571Z,535.00
2023-05-10T01:39:19.590Z,536.00
2023-05-10T01:40:19.556Z,536.00
2023-05-10T01:41:19.544Z,538.00
2023-05-10T01:42:19.537Z,537.00
2023-05-10T01:43:19.530Z,538.00
2023-05-10T01:44:19.525Z,538.00
2023-05-10T01:45:19.526Z,537.00
2023-05-10T01:46:19.595Z,533.00
2023-05-10T01:47:19.529Z,532.00
2023-05-10T01:48:19.515Z,532.00
2023-05-10T01:49:19.524Z,534.00
2023-05-10T01:50:19.661Z,534.00
2023-05-10T01:51:19.478Z,533.00
2023-05-10T01:52:19.476Z,532.00
2023-05-10T01:53:19.477Z,531.00
2023-05-10T01:54:19.465Z,528.00
2023-05-10T01:55:19.479Z,528.00
2023-05-10T01:56:19.440Z,529.00
2023-05-10T01:57:19.451Z,527.00
2023-05-10T01:58:19.439Z,529.00
2023-05-10T01:59:19.442Z,530.00
2023-05-10T02:00:19.434Z,529.00
2023-05-10T02:01:19.472Z,528.00
2023-05-10T02:02:19.408Z,528.00
2023-05-10T02:03:19.438Z,528.00
2023-05-10T02:04:19.394Z,524.00
2023-05-10T02:05:19.419Z,523.00
2023-05-10T02:06:19.380Z,524.00
2023-05-10T02:07:19.386Z,520.00
2023-05-10T02:08:19.374Z,524.00
2023-05-10T02:09:19.364Z,522.00
2023-05-10T02:10:19.528Z,522.00
2023-05-10T02:11:19.363Z,523.00
2023-05-10T02:12:19.344Z,523.00
2023-05-10T02:13:19.374Z,523.00
2023-05-10T02:14:19.342Z,527.00
2023-05-10T02:15:19.325Z,528.00
2023-05-10T02:16:19.349Z,526.00
2023-05-10T02:17:19.310Z,525.00
2023-05-10T02:18:19.314Z,524.00
2023-05-10T02:19:19.297Z,527.00
2023-05-10T02:20:19.493Z,526.00
2023-05-10T02:21:19.308Z,526.00
2023-05-10T02:22:19.271Z,529.00
2023-05-10T02:23:19.271Z,529.00
2023-05-10T02:24:19.264Z,527.00
2023-05-10T02:25:19.251Z,526.00
2023-05-10T02:26:19.320Z,527.00
2023-05-10T02:27:19.338Z,524.00
2023-05-10T02:28:19.383Z,525.00
2023-05-10T02:29:19.381Z,523.00
2023-05-10T02:30:19.443Z,521.00
2023-05-10T02:31:19.477Z,520.00
2023-05-10T02:32:19.483Z,520.00
2023-05-10T02:33:19.475Z,519.00
2023-05-10T02:34:19.456Z,520.00
2023-05-10T02:35:19.451Z,522.00
2023-05-10T02:36:19.466Z,519.00
2023-05-10T02:37:19.487Z,520.00
2023-05-10T02:38:19.455Z,521.00
2023-05-10T02:39:19.464Z,522.00
2023-05-10T02:40:19.593Z,522.00
2023-05-10T02:41:19.461Z,523.00
2023-05-10T02:42:19.461Z,523.00
2023-05-10T02:43:19.511Z,525.00
2023-05-10T02:44:19.479Z,524.00
2023-05-10T02:45:19.488Z,523.00
2023-05-10T02:46:19.550Z,523.00
2023-05-10T02:47:19.526Z,523.00
2023-05-10T02:48:19.523Z,523.00
2023-05-10T02:49:19.528Z,522.00
2023-05-10T02:50:19.619Z,521.00
2023-05-10T02:51:19.546Z,523.00
2023-05-10T02:52:19.587Z,521.00
2023-05-10T02:53:19.616Z,523.00
2023-05-10T02:54:19.624Z,524.00
2023-05-10T02:55:19.592Z,525.00
2023-05-10T02:56:19.589Z,526.00
2023-05-10T02:57:19.598Z,524.00
2023-05-10T02:58:19.626Z,524.00
2023-05-10T02:59:19.631Z,526.00
2023-05-10T03:00:19.629Z,527.00
2023-05-10T03:01:19.668Z,529.00
2023-05-10T03:02:19.697Z,530.00
2023-05-10T03:03:19.651Z,533.00
2023-05-10T03:04:19.676Z,533.00
2023-05-10T03:05:19.677Z,531.00
2023-05-10T03:06:19.674Z,533.00
2023-05-10T03:07:19.681Z,530.00
2023-05-10T03:08:19.689Z,528.00
2023-05-10T03:09:19.736Z,526.00
2023-05-10T03:10:19.803Z,524.00
2023-05-10T03:11:19.715Z,526.00
2023-05-10T03:12:19.713Z,527.00
2023-05-10T03:13:19.835Z,526.00
2023-05-10T03:14:19.720Z,525.00
2023-05-10T03:15:19.728Z,526.00
2023-05-10T03:16:19.751Z,526.00
2023-05-10T03:17:19.776Z,526.00
2023-05-10T03:18:19.773Z,525.00
2023-05-10T03:19:19.782Z,525.00
2023-05-10T03:20:19.773Z,524.00
2023-05-10T03:21:19.773Z,522.00
2023-05-10T03:22:19.776Z,520.00
2023-05-10T03:23:19.805Z,516.00
2023-05-10T03:24:19.852Z,517.00
2023-05-10T03:25:19.899Z,517.00
2023-05-10T03:26:19.882Z,516.00
2023-05-10T03:27:19.870Z,518.00
2023-05-10T03:28:19.872Z,520.00
2023-05-10T03:29:19.873Z,520.00
2023-05-10T03:30:19.889Z,519.00
2023-05-10T03:31:19.919Z,520.00
2023-05-10T03:32:19.889Z,521.00
2023-05-10T03:33:19.897Z,521.00
2023-05-10T03:34:19.906Z,521.00
2023-05-10T03:35:19.932Z,521.00
2023-05-10T03:36:19.921Z,524.00
2023-05-10T03:37:19.924Z,524.00
2023-05-10T03:38:19.916Z,523.00
2023-05-10T03:39:19.917Z,521.00
2023-05-10T03:40:20.048Z,520.00
2023-05-10T03:41:19.957Z,518.00
2023-05-10T03:42:19.909Z,518.00
2023-05-10T03:43:19.926Z,516.00
2023-05-10T03:44:19.925Z,519.00
2023-05-10T03:45:19.922Z,522.00
2023-05-10T03:46:19.950Z,523.00
2023-05-10T03:47:19.919Z,523.00
2023-05-10T03:48:19.935Z,521.00
2023-05-10T03:49:19.930Z,523.00
2023-05-10T03:50:20.184Z,524.00
2023-05-10T03:51:19.936Z,524.00
2023-05-10T03:52:19.943Z,523.00
2023-05-10T03:53:19.939Z,524.00
2023-05-10T03:54:19.940Z,523.00
2023-05-10T03:55:19.946Z,523.00
2023-05-10T03:56:19.955Z,523.00
2023-05-10T03:57:19.987Z,523.00
2023-05-10T03:58:19.945Z,522.00
2023-05-10T03:59:19.944Z,522.00
2023-05-10T04:00:20.072Z,523.00
2023-05-10T04:01:19.971Z,523.00
2023-05-10T04:02:20.031Z,526.00
2023-05-10T04:03:20.002Z,526.00
2023-05-10T04:04:20.127Z,525.00
2023-05-10T04:05:19.967Z,527.00
2023-05-10T04:06:20.020Z,528.00
2023-05-10T04:07:19.978Z,525.00
2023-05-10T04:08:19.967Z,524.00
2023-05-10T04:09:19.974Z,523.00
2023-05-10T04:10:20.056Z,524.00
2023-05-10T04:11:19.954Z,523.00
2023-05-10T04:12:19.971Z,526.00
2023-05-10T04:13:20.011Z,527.00
2023-05-10T04:14:19.961Z,527.00
2023-05-10T04:15:19.938Z,527.00
2023-05-10T04:16:19.985Z,526.00
2023-05-10T04:17:19.990Z,527.00
2023-05-10T04:18:19.950Z,527.00
2023-05-10T04:19:19.949Z,526.00
2023-05-10T04:20:19.951Z,524.00
2023-05-10T04:21:19.950Z,524.00
2023-05-10T04:22:19.950Z,525.00
2023-05-10T04:23:19.943Z,525.00
2023-05-10T04:24:19.938Z,526.00
2023-05-10T04:25:19.949Z,529.00
2023-05-10T04:26:19.950Z,530.00
2023-05-10T04:27:19.955Z,530.00
2023-05-10T04:28:19.938Z,530.00
2023-05-10T04:29:20.085Z,528.00
2023-05-10T04:30:19.950Z,530.00
2023-05-10T04:31:20.110Z,528.00
2023-05-10T04:32:19.956Z,525.00
2023-05-10T04:33:19.966Z,524.00
2023-05-10T04:34:19.954Z,521.00
2023-05-10T04:35:19.972Z,522.00
2023-05-10T04:36:19.948Z,521.00
2023-05-10T04:37:19.962Z,527.00
2023-05-10T04:38:19.982Z,525.00
2023-05-10T04:39:20.014Z,527.00
2023-05-10T04:40:19.956Z,525.00
2023-05-10T04:41:19.954Z,523.00
2023-05-10T04:42:19.981Z,523.00
2023-05-10T04:43:19.976Z,523.00
2023-05-10T04:44:20.003Z,521.00
2023-05-10T04:45:20.010Z,522.00
2023-05-10T04:46:19.976Z,523.00
2023-05-10T04:47:20.790Z,523.00
2023-05-10T04:48:19.964Z,523.00
2023-05-10T04:49:19.971Z,521.00
2023-05-10T04:50:19.980Z,522.00
2023-05-10T04:51:19.969Z,525.00
2023-05-10T04:52:20.006Z,526.00
2023-05-10T04:53:19.962Z,527.00
2023-05-10T04:54:19.963Z,524.00
2023-05-10T04:55:19.968Z,525.00
2023-05-10T04:56:19.963Z,527.00
2023-05-10T04:57:19.969Z,523.00
2023-05-10T04:58:19.963Z,522.00
2023-05-10T04:59:19.948Z,524.00
2023-05-10T05:00:19.954Z,525.00
2023-05-10T05:01:20.012Z,525.00
2023-05-10T05:02:19.972Z,525.00
2023-05-10T05:03:20.058Z,524.00
2023-05-10T05:04:19.975Z,525.00
2023-05-10T05:05:19.968Z,525.00
2023-05-10T05:06:20.033Z,525.00
2023-05-10T05:07:19.960Z,524.00
2023-05-10T05:08:19.962Z,521.00
2023-05-10T05:09:19.959Z,521.00
2023-05-10T05:10:20.214Z,522.00
2023-05-10T05:11:19.957Z,522.00
2023-05-10T05:12:19.962Z,523.00
2023-05-10T05:13:20.073Z,524.00
2023-05-10T05:14:19.985Z,525.00
2023-05-10T05:15:19.954Z,524.00
2023-05-10T05:16:19.977Z,524.00
2023-05-10T05:17:19.997Z,521.00
2023-05-10T05:18:19.939Z,522.00
2023-05-10T05:19:20.309Z,525.00
2023-05-10T05:20:20.029Z,523.00
2023-05-10T05:21:20.337Z,524.00
2023-05-10T05:22:19.960Z,522.00
2023-05-10T05:23:19.943Z,522.00
2023-05-10T05:24:19.965Z,524.00
2023-05-10T05:25:19.940Z,526.00
2023-05-10T05:26:20.298Z,530.00
2023-05-10T05:27:19.944Z,531.00
2023-05-10T05:28:19.944Z,531.00
2023-05-10T05:29:19.973Z,531.00
2023-05-10T05:30:19.958Z,531.00
2023-05-10T05:31:20.072Z,532.00
2023-05-10T05:32:19.947Z,534.00
2023-05-10T05:33:19.989Z,536.00
2023-05-10T05:34:19.967Z,537.00
2023-05-10T05:35:20.305Z,539.00
2023-05-10T05:36:19.968Z,543.00
2023-05-10T05:37:19.976Z,545.00
2023-05-10T05:38:19.967Z,547.00
2023-05-10T05:39:19.968Z,548.00
2023-05-10T05:40:20.310Z,550.00
2023-05-10T05:41:19.971Z,552.00
2023-05-10T05:42:20.020Z,554.00
2023-05-10T05:43:20.011Z,555.00
2023-05-10T05:44:20.006Z,555.00
2023-05-10T05:45:20.538Z,557.00
2023-05-10T05:46:20.090Z,564.00
2023-05-10T05:47:20.081Z,572.00
2023-05-10T05:48:20.040Z,585.00
2023-05-10T05:49:20.434Z,595.00
2023-05-10T05:50:20.362Z,603.00
2023-05-10T05:51:21.009Z,613.00
2023-05-10T05:52:20.006Z,627.00
2023-05-10T05:53:20.156Z,638.00
2023-05-10T05:54:20.351Z,639.00
2023-05-10T05:55:20.003Z,695.00
2023-05-10T05:56:20.006Z,709.00
2023-05-10T05:57:20.002Z,732.00
2023-05-10T05:58:20.318Z,742.00
2023-05-10T05:59:20.087Z,753.00
2023-05-10T06:00:21.314Z,757.00
2023-05-10T06:01:20.183Z,764.00
2023-05-10T06:02:20.259Z,773.00
2023-05-10T06:03:20.473Z,779.00
2023-05-10T06:04:20.895Z,793.00
2023-05-10T06:05:20.843Z,815.00
2023-05-10T06:06:20.473Z,829.00
2023-05-10T06:07:20.820Z,843.00
2023-05-10T06:08:20.679Z,857.00
2023-05-10T06:09:23.847Z,880.00
2023-05-10T06:10:20.641Z,926.00
2023-05-10T06:11:20.644Z,941.00
2023-05-10T06:12:20.926Z,960.00
2023-05-10T06:13:20.664Z,970.00
2023-05-10T06:14:20.869Z,982.00
2023-05-10T06:15:20.824Z,997.00
2023-05-10T06:16:20.627Z,1009.00
2023-05-10T06:17:20.589Z,1022.00
2023-05-10T06:18:20.597Z,1026.00
2023-05-10T06:19:20.590Z,1037.00
2023-05-10T06:20:20.828Z,1057.00
2023-05-10T06:21:20.603Z,1120.00
2023-05-10T06:22:20.560Z,1128.00
2023-05-10T06:23:20.544Z,1137.00
2023-05-10T06:24:20.573Z,1144.00
2023-05-10T06:25:20.537Z,1159.00
2023-05-10T06:26:20.553Z,1183.00
2023-05-10T06:27:20.539Z,1194.00
2023-05-10T06:28:20.533Z,1197.00
2023-05-10T06:29:20.853Z,1201.00
2023-05-10T06:30:20.534Z,1216.00
2023-05-10T06:31:20.522Z,1245.00
2023-05-10T06:32:23.829Z,1272.00
2023-05-10T06:33:20.500Z,1281.00
2023-05-10T06:34:20.880Z,1293.00
2023-05-10T06:35:20.484Z,1307.00
2023-05-10T06:36:20.478Z,1319.00
2023-05-10T06:37:20.500Z,1332.00
2023-05-10T06:38:20.468Z,1346.00
2023-05-10T06:39:20.837Z,1359.00
2023-05-10T06:40:20.449Z,1370.00
2023-05-10T06:41:22.567Z,1391.00
2023-05-10T06:42:20.455Z,1403.00
2023-05-10T06:43:20.430Z,1420.00
2023-05-10T06:44:20.436Z,1434.00
2023-05-10T06:45:21.172Z,1446.00
2023-05-10T06:46:20.442Z,1513.00
2023-05-10T06:47:20.408Z,1528.00
2023-05-10T06:48:20.476Z,1514.00
2023-05-10T06:49:20.832Z,1499.00
2023-05-10T06:50:20.853Z,1483.00
2023-05-10T06:51:20.379Z,1464.00
2023-05-10T06:52:20.377Z,1451.00
2023-05-10T06:53:20.388Z,1447.00
2023-05-10T06:54:20.722Z,1439.00
2023-05-10T06:55:24.091Z,1432.00
2023-05-10T06:56:20.347Z,1428.00
2023-05-10T06:57:31.424Z,1425.00
2023-05-10T06:58:20.332Z,1427.00
2023-05-10T06:59:20.386Z,1426.00
2023-05-10T07:00:20.824Z,1427.00
2023-05-10T07:01:20.556Z,1427.00
2023-05-10T07:02:20.328Z,1425.00
2023-05-10T07:03:20.370Z,1424.00
2023-05-10T07:04:20.390Z,1423.00
2023-05-10T07:05:20.790Z,1425.00
2023-05-10T07:06:32.159Z,1426.00
2023-05-10T07:07:20.294Z,1424.00
2023-05-10T07:08:20.275Z,1421.00
2023-05-10T07:09:20.304Z,1421.00
2023-05-10T07:10:20.370Z,1419.00
2023-05-10T07:11:20.260Z,1414.00
2023-05-10T07:12:20.310Z,1411.00
2023-05-10T07:13:20.366Z,1412.00
2023-05-10T07:14:20.234Z,1410.00
2023-05-10T07:15:20.245Z,1412.00
2023-05-10T07:16:20.411Z,1411.00
2023-05-10T07:17:20.258Z,1409.00
2023-05-10T07:18:20.303Z,1407.00
2023-05-10T07:19:20.269Z,1403.00
2023-05-10T07:20:20.196Z,1399.00
2023-05-10T07:21:20.295Z,1400.00
2023-05-10T07:22:20.194Z,1397.00
2023-05-10T07:23:20.189Z,1395.00
2023-05-10T07:24:21.174Z,1394.00
2023-05-10T07:25:20.323Z,1390.00
2023-05-10T07:26:20.166Z,1385.00
2023-05-10T07:27:20.160Z,1382.00
2023-05-10T07:28:20.146Z,1381.00
2023-05-10T07:29:20.367Z,1382.00
2023-05-10T07:30:20.198Z,1377.00
2023-05-10T07:31:20.140Z,1373.00
2023-05-10T07:32:20.436Z,1374.00
2023-05-10T07:33:20.234Z,1369.00
2023-05-10T07:34:20.196Z,1365.00
2023-05-10T07:35:20.366Z,1368.00
2023-05-10T07:36:21.302Z,1368.00
2023-05-10T07:37:20.328Z,1366.00
2023-05-10T07:38:20.354Z,1366.00
2023-05-10T07:39:26.570Z,1376.00
2023-05-10T07:40:20.900Z,1405.00
2023-05-10T07:41:20.399Z,1421.00
2023-05-10T07:42:20.354Z,1439.00
2023-05-10T07:43:20.372Z,1459.00
2023-05-10T07:44:20.425Z,1475.00
2023-05-10T07:45:20.361Z,1488.00
2023-05-10T07:46:20.459Z,1507.00
2023-05-10T07:47:20.406Z,1524.00
2023-05-10T07:48:20.374Z,1533.00
2023-05-10T07:49:20.351Z,1544.00
2023-05-10T07:50:20.384Z,1554.00
2023-05-10T07:51:20.295Z,1589.00
2023-05-10T07:52:22.401Z,1608.00
2023-05-10T07:53:20.316Z,1609.00
2023-05-10T07:54:21.408Z,1609.00
2023-05-10T07:55:20.386Z,1603.00
2023-05-10T07:56:20.314Z,1593.00
2023-05-10T07:57:20.309Z,1582.00
2023-05-10T07:58:20.549Z,1581.00
2023-05-10T07:59:20.241Z,1579.00
2023-05-10T08:00:20.402Z,1575.00
2023-05-10T08:01:20.360Z,1568.00
2023-05-10T08:02:20.270Z,1566.00
2023-05-10T08:03:20.401Z,1561.00
2023-05-10T08:04:20.384Z,1558.00
2023-05-10T08:05:20.364Z,1558.00
2023-05-10T08:06:20.407Z,1557.00
2023-05-10T08:07:20.869Z,1554.00
2023-05-10T08:08:20.527Z,1550.00
2023-05-10T08:09:20.576Z,1546.00
2023-05-10T08:10:20.641Z,1541.00
2023-05-10T08:11:20.700Z,1538.00
2023-05-10T08:12:20.743Z,1539.00
2023-05-10T08:13:20.840Z,1538.00
2023-05-10T08:14:20.898Z,1538.00
2023-05-10T08:15:20.914Z,1539.00
2023-05-10T08:16:21.064Z,1538.00
2023-05-10T08:17:22.116Z,1534.00
2023-05-10T08:18:22.182Z,1529.00
2023-05-10T08:19:21.023Z,1529.00
2023-05-10T08:20:21.392Z,1527.00
2023-05-10T08:21:21.012Z,1527.00
2023-05-10T08:22:21.011Z,1524.00
2023-05-10T08:23:21.030Z,1525.00
2023-05-10T08:24:21.093Z,1527.00
2023-05-10T08:25:21.384Z,1525.00
2023-05-10T08:26:21.210Z,1522.00
2023-05-10T08:27:21.302Z,1513.00
2023-05-10T08:28:21.324Z,1506.00
2023-05-10T08:29:21.417Z,1500.00
2023-05-10T08:30:21.884Z,1497.00
2023-05-10T08:31:21.518Z,1496.00
2023-05-10T08:32:21.520Z,1496.00
2023-05-10T08:33:21.570Z,1498.00
2023-05-10T08:34:21.908Z,1497.00
2023-05-10T08:35:21.886Z,1496.00
2023-05-10T08:36:21.703Z,1493.00
2023-05-10T08:37:21.730Z,1489.00
2023-05-10T08:38:24.959Z,1485.00
2023-05-10T08:39:29.883Z,1482.00
2023-05-10T08:41:22.799Z,1477.00
2023-05-10T08:42:21.744Z,1476.00
2023-05-10T08:43:25.000Z,1474.00
2023-05-10T08:44:21.774Z,1476.00
2023-05-10T08:45:21.905Z,1479.00
2023-05-10T08:46:21.842Z,1477.00
2023-05-10T08:47:21.746Z,1473.00
2023-05-10T08:48:21.721Z,1466.00
2023-05-10T08:49:21.686Z,1462.00
2023-05-10T08:50:21.887Z,1460.00
2023-05-10T08:51:21.687Z,1457.00
2023-05-10T08:52:21.683Z,1454.00
2023-05-10T08:53:21.670Z,1450.00
2023-05-10T08:54:21.667Z,1451.00
2023-05-10T08:55:21.959Z,1451.00
2023-05-10T08:56:21.650Z,1451.00
2023-05-10T08:57:21.718Z,1450.00
2023-05-10T08:58:25.106Z,1448.00
2023-05-10T08:59:21.638Z,1445.00
2023-05-10T09:00:21.631Z,1445.00
2023-05-10T09:01:21.680Z,1443.00
2023-05-10T09:02:21.614Z,1445.00
2023-05-10T09:03:21.597Z,1445.00
2023-05-10T09:04:21.721Z,1445.00
2023-05-10T09:05:21.628Z,1446.00
2023-05-10T09:06:21.584Z,1442.00
2023-05-10T09:07:21.576Z,1441.00
2023-05-10T09:08:21.570Z,1439.00
2023-05-10T09:09:21.889Z,1442.00
2023-05-10T09:10:21.557Z,1441.00
2023-05-10T09:11:22.197Z,1442.00
2023-05-10T09:12:21.561Z,1439.00
2023-05-10T09:13:21.529Z,1438.00
2023-05-10T09:14:21.540Z,1436.00
2023-05-10T09:15:21.904Z,1437.00
2023-05-10T09:16:22.436Z,1435.00
2023-05-10T09:17:21.620Z,1433.00
2023-05-10T09:18:21.528Z,1430.00
2023-05-10T09:19:21.497Z,1430.00
2023-05-10T09:20:21.512Z,1427.00
2023-05-10T09:21:21.577Z,1425.00
2023-05-10T09:22:21.477Z,1424.00
2023-05-10T09:23:21.476Z,1424.00
2023-05-10T09:24:21.466Z,1424.00
2023-05-10T09:25:21.900Z,1426.00
2023-05-10T09:26:21.446Z,1427.00
2023-05-10T09:27:21.443Z,1428.00
2023-05-10T09:28:21.474Z,1428.00
2023-05-10T09:29:21.903Z,1426.00
2023-05-10T09:30:21.506Z,1432.00
2023-05-10T09:31:21.713Z,1434.00
2023-05-10T09:32:21.593Z,1432.00
2023-05-10T09:33:53.485Z,1442.00
2023-05-10T09:34:21.949Z,1445.00
2023-05-10T09:35:21.604Z,1427.00
2023-05-10T09:36:21.903Z,1245.00
2023-05-10T09:37:21.591Z,1323.00
2023-05-10T09:38:21.923Z,1304.00
2023-05-10T09:39:21.572Z,1289.00
2023-05-10T09:40:21.579Z,1223.00
2023-05-10T09:41:21.563Z,1061.00
2023-05-10T09:42:21.574Z,899.00
2023-05-10T09:43:21.910Z,915.00
2023-05-10T09:44:21.544Z,921.00
2023-05-10T09:45:21.912Z,918.00
2023-05-10T09:46:21.582Z,932.00
2023-05-10T09:47:21.520Z,1011.00
2023-05-10T09:48:21.515Z,1039.00
2023-05-10T09:49:21.553Z,1054.00
2023-05-10T09:50:21.512Z,1062.00
2023-05-10T09:51:21.526Z,1070.00
2023-05-10T09:52:21.518Z,1086.00
2023-05-10T09:53:21.542Z,1105.00
2023-05-10T09:54:21.997Z,1121.00
2023-05-10T09:55:21.567Z,1142.00
2023-05-10T09:56:29.116Z,1170.00
2023-05-10T09:57:21.615Z,1190.00
2023-05-10T09:58:21.647Z,1214.00
2023-05-10T09:59:21.594Z,1237.00
2023-05-10T10:00:21.618Z,1254.00
2023-05-10T10:01:21.953Z,1284.00
2023-05-10T10:02:21.579Z,1308.00
2023-05-10T10:03:21.569Z,1337.00
2023-05-10T10:04:21.578Z,1366.00
2023-05-10T10:05:21.577Z,1383.00
2023-05-10T10:06:29.519Z,1395.00
2023-05-10T10:07:21.555Z,1409.00
2023-05-10T10:08:21.533Z,1426.00
2023-05-10T10:09:21.554Z,1444.00
2023-05-10T10:10:21.926Z,1462.00
2023-05-10T10:11:21.515Z,1478.00
2023-05-10T10:12:21.510Z,1501.00
2023-05-10T10:13:21.521Z,1522.00
2023-05-10T10:14:21.490Z,1536.00
2023-05-10T10:15:21.799Z,1549.00
2023-05-10T10:16:21.512Z,1575.00
2023-05-10T10:17:21.494Z,1594.00
2023-05-10T10:18:21.477Z,1611.00
2023-05-10T10:19:21.927Z,1657.00
2023-05-10T10:20:21.588Z,1679.00
2023-05-10T10:21:21.953Z,1683.00
2023-05-10T10:22:21.455Z,1695.00
2023-05-10T10:23:21.443Z,1703.00
2023-05-10T10:24:21.429Z,1720.00
2023-05-10T10:25:21.436Z,1740.00
2023-05-10T10:26:21.445Z,1766.00
2023-05-10T10:27:21.399Z,1793.00
2023-05-10T10:28:21.394Z,1811.00
2023-05-10T10:29:21.397Z,1825.00
2023-05-10T10:30:21.388Z,1858.00
2023-05-10T10:31:21.493Z,1868.00
2023-05-10T10:32:21.391Z,1881.00
2023-05-10T10:34:21.356Z,1903.00
2023-05-10T10:35:21.350Z,1897.00
2023-05-10T10:36:21.360Z,1891.00
2023-05-10T10:37:21.379Z,1895.00
2023-05-10T10:38:21.318Z,1909.00
2023-05-10T10:39:21.433Z,1932.00
2023-05-10T10:40:21.309Z,1958.00
2023-05-10T10:41:21.434Z,1986.00
2023-05-10T10:42:21.303Z,1997.00
2023-05-10T10:43:21.286Z,2014.00
2023-05-10T10:44:21.283Z,2040.00
2023-05-10T10:45:21.272Z,2061.00
2023-05-10T10:46:21.290Z,2063.00
2023-05-10T10:47:21.275Z,2075.00
2023-05-10T10:48:21.247Z,2088.00
2023-05-10T10:49:21.248Z,2094.00
2023-05-10T10:50:21.231Z,2102.00
2023-05-10T10:51:21.433Z,2101.00
2023-05-10T10:52:21.216Z,2103.00
2023-05-10T10:53:21.276Z,2112.00
2023-05-10T10:54:21.201Z,2124.00
2023-05-10T10:55:21.210Z,2138.00
2023-05-10T10:56:21.192Z,2169.00
2023-05-10T10:57:21.188Z,2190.00
2023-05-10T10:58:21.179Z,2206.00
2023-05-10T10:59:21.177Z,2216.00
2023-05-10T11:00:21.182Z,2244.00
2023-05-10T11:01:21.496Z,2258.00
2023-05-10T11:02:21.294Z,2274.00
2023-05-10T11:03:21.350Z,2292.00
2023-05-10T11:04:21.469Z,2311.00
2023-05-10T11:05:21.459Z,2344.00
2023-05-10T11:06:21.541Z,2379.00
2023-05-10T11:07:21.582Z,2384.00
2023-05-10T11:08:21.631Z,2374.00
2023-05-10T11:09:21.721Z,2366.00
2023-05-10T11:10:21.761Z,2351.00
2023-05-10T11:11:21.820Z,2339.00
2023-05-10T11:12:21.897Z,2338.00
2023-05-10T11:13:21.939Z,2332.00
2023-05-10T11:14:21.967Z,2326.00
2023-05-10T11:15:22.042Z,2320.00
2023-05-10T11:16:22.078Z,2312.00
2023-05-10T11:17:22.021Z,2309.00
2023-05-10T11:18:22.101Z,2311.00
2023-05-10T11:19:22.021Z,2308.00
2023-05-10T11:20:22.014Z,2306.00
2023-05-10T11:21:22.018Z,2304.00
2023-05-10T11:22:22.318Z,2302.00
2023-05-10T11:23:22.105Z,2306.00
2023-05-10T11:24:22.057Z,2304.00
2023-05-10T11:25:23.030Z,2301.00
2023-05-10T11:26:22.085Z,2297.00
2023-05-10T11:27:22.079Z,2293.00
2023-05-10T11:28:22.090Z,2287.00
2023-05-10T11:29:22.142Z,2287.00
2023-05-10T11:30:22.107Z,2287.00
2023-05-10T11:31:22.270Z,2283.00
2023-05-10T11:32:22.134Z,2281.00
2023-05-10T11:33:22.160Z,2283.00
2023-05-10T11:34:22.163Z,2280.00
2023-05-10T11:35:22.182Z,2278.00
2023-05-10T11:36:22.181Z,2278.00
2023-05-10T11:37:22.199Z,2274.00
2023-05-10T11:38:22.211Z,2274.00
2023-05-10T11:39:22.231Z,2270.00
2023-05-10T11:40:22.238Z,2269.00
2023-05-10T11:41:22.274Z,2272.00
2023-05-10T11:42:22.265Z,2275.00
2023-05-10T11:43:22.292Z,2276.00
2023-05-10T11:44:22.291Z,2276.00
2023-05-10T11:45:22.332Z,2277.00
2023-05-10T11:46:22.423Z,2281.00
2023-05-10T11:47:22.311Z,2278.00
2023-05-10T11:48:22.311Z,2275.00
2023-05-10T11:49:22.324Z,2272.00
2023-05-10T11:50:22.338Z,2275.00
2023-05-10T11:51:22.344Z,2275.00
2023-05-10T11:52:22.365Z,2272.00
2023-05-10T11:53:23.746Z,2269.00
2023-05-10T11:54:22.382Z,2267.00
2023-05-10T11:55:22.379Z,2263.00
2023-05-10T11:56:22.374Z,2260.00
2023-05-10T11:57:22.384Z,2256.00
2023-05-10T11:58:22.353Z,2257.00
2023-05-10T11:59:22.337Z,2260.00
2023-05-10T12:00:22.395Z,2262.00
2023-05-10T12:01:22.475Z,2261.00
2023-05-10T12:02:22.342Z,2260.00
2023-05-10T12:03:22.431Z,2259.00
2023-05-10T12:04:22.416Z,2262.00
2023-05-10T12:05:22.305Z,2262.00
2023-05-10T12:06:22.320Z,2258.00
2023-05-10T12:07:22.288Z,2253.00
2023-05-10T12:08:22.289Z,2244.00
2023-05-10T12:09:35.371Z,2243.00
2023-05-10T12:10:22.291Z,2246.00
2023-05-10T12:11:22.256Z,2245.00
2023-05-10T12:12:22.254Z,2244.00
2023-05-10T12:13:22.266Z,2240.00
2023-05-10T12:14:23.244Z,2241.00
2023-05-10T12:15:22.275Z,2243.00
2023-05-10T12:16:22.520Z,2241.00
2023-05-10T12:17:22.220Z,2236.00
2023-05-10T12:18:22.256Z,2230.00
2023-05-10T12:19:22.214Z,2229.00